^^
Datos históricos de la estación: Murcia-Puente Tocinos
Diario Informe para Mayo 2, 2019 Unidades:  Métrico    Ingés   Ambas
Diario Semanal Mensual Anual
  Máxima: Mínima: Promedio:
Temperatura: 28.9 °C 15.9 °C 22.2 °C
Punto de rocio: 12 °C 3.7 °C 6.9 °C
Humedad: 60.9% 21% 40%
Velocidad viento: 15.6km/h 0km/h 8km/h
Racha viento: 29.6km/h - -
Viento- - ESE
Presión: 1019.8 hPa 1015.7 hPa -
Precipitación: 0.0 mm    
 
 
Tabla de datos para Mayo 2, 2019
Hora Temperatura Punto de rocio Presión Viento Velocidad viento Racha viento Humedad Intensidad lluvia(por hora) Nubes
00:04 20.6 °C 8.6 °C 1019.7 hPa NE 6.9 km/h 11.3 km/h 46% 0.0 mm
00:09 20.6 °C 8.6 °C 1019.7 hPa NE 6.8 km/h 10 km/h 46.3% 0.0 mm
00:14 20.4 °C 8.7 °C 1019.7 hPa NE 6.5 km/h 9.7 km/h 47% 0.0 mm
00:19 20.3 °C 8.7 °C 1019.7 hPa NE 5.9 km/h 9.7 km/h 47% 0.0 mm
00:24 20.2 °C 8.6 °C 1019.7 hPa ENE 5 km/h 8 km/h 47.2% 0.0 mm
00:29 20.1 °C 8.8 °C 1019.7 hPa NE 4.3 km/h 8 km/h 48% 0.0 mm
00:34 20.1 °C 8.7 °C 1019.8 hPa NE 3.2 km/h 4.8 km/h 48% 0.0 mm
00:39 19.9 °C 8.5 °C 1019.8 hPa NE 3.1 km/h 5.6 km/h 48% 0.0 mm
00:44 19.7 °C 8.6 °C 1019.8 hPa NE 2.9 km/h 5.6 km/h 48.7% 0.0 mm
00:49 19.5 °C 8.5 °C 1019.8 hPa NE 3 km/h 7.4 km/h 49% 0.0 mm
00:54 19.3 °C 8.3 °C 1019.7 hPa NE 3.2 km/h 8 km/h 48.9% 0.0 mm
00:59 19.1 °C 8.1 °C 1019.7 hPa NE 3.5 km/h 8 km/h 48.9% 0.0 mm
01:04 19 °C 8.3 °C 1019.7 hPa NE 3.9 km/h 8 km/h 49.7% 0.0 mm
01:09 18.9 °C 8.2 °C 1019.7 hPa ENE 4.2 km/h 8 km/h 50% 0.0 mm
01:14 18.8 °C 8.5 °C 1019.7 hPa ENE 4.7 km/h 8 km/h 50.9% 0.0 mm
01:19 18.8 °C 8.4 °C 1019.7 hPa ENE 4.4 km/h 8 km/h 51% 0.0 mm
01:24 18.8 °C 8.4 °C 1019.7 hPa ENE 3.9 km/h 8 km/h 51% 0.0 mm
01:29 18.8 °C 8.4 °C 1019.7 hPa ENE 2.4 km/h 4.8 km/h 51% 0.0 mm
01:34 18.8 °C 8.6 °C 1019.7 hPa Calm   4.7 km/h 51.8% 0.0 mm
01:39 18.7 °C 8.6 °C 1019.7 hPa North 0.8 km/h 4.8 km/h 52% 0.0 mm
01:44 18.6 °C 8.6 °C 1019.7 hPa North 2.2 km/h 4.8 km/h 52.2% 0.0 mm
01:49 18.5 °C 8.7 °C 1019.7 hPa North 1.4 km/h 2.3 km/h 53% 0.0 mm
01:54 18.4 °C 8.7 °C 1019.7 hPa Calm   1.6 km/h 53% 0.0 mm
01:59 18.4 °C 8.7 °C 1019.7 hPa Calm   3.9 km/h 53% 0.0 mm
02:04 18.4 °C 8.7 °C 1019.7 hPa Calm   4.7 km/h 53% 0.0 mm
02:09 18.3 °C 8.9 °C 1019.6 hPa North 0.8 km/h 4.8 km/h 54% 0.0 mm
02:14 18.3 °C 8.8 °C 1019.6 hPa North 2.2 km/h 5.6 km/h 54% 0.0 mm
02:19 18.3 °C 8.8 °C 1019.6 hPa North 2.5 km/h 4.8 km/h 54% 0.0 mm
02:24 18.2 °C 9 °C 1019.4 hPa North 2.9 km/h 4.8 km/h 54.9% 0.0 mm
02:29 18.1 °C 8.9 °C 1019.4 hPa North 1.9 km/h   55% 0.0 mm
02:34 18.1 °C 8.9 °C 1019.4 hPa Calm     55% 0.0 mm
02:39 18 °C 8.8 °C 1019.3 hPa Calm     55% 0.0 mm
02:44 18 °C 8.8 °C 1019.3 hPa Calm     55% 0.0 mm
02:49 17.9 °C 8.8 °C 1019.3 hPa Calm     55.2% 0.0 mm
02:54 17.9 °C 8.8 °C 1019.2 hPa Calm     55.4% 0.0 mm
02:59 17.8 °C 8.2 °C 1019.2 hPa Calm   3.7 km/h 53.4% 0.0 mm
03:04 17.8 °C 8.2 °C 1019.2 hPa Calm   5.6 km/h 53.3% 0.0 mm
03:09 17.8 °C 8.1 °C 1019.2 hPa North 0.8 km/h 4.8 km/h 53% 0.0 mm
03:14 17.7 °C 8.1 °C 1019.2 hPa North 2.2 km/h 3.2 km/h 53.1% 0.0 mm
03:19 17.7 °C 8.2 °C 1019.2 hPa North 1.5 km/h   53.6% 0.0 mm
03:24 17.8 °C 8.3 °C 1019.2 hPa Calm     53.8% 0.0 mm
03:29 17.8 °C 8.6 °C 1019.2 hPa Calm     55% 0.0 mm
03:34 17.8 °C 8.5 °C 1019.2 hPa Calm     54.7% 0.0 mm
03:39 17.7 °C 8.6 °C 1019.1 hPa Calm     55% 0.0 mm
03:44 17.7 °C 8.3 °C 1019.1 hPa Calm   3.7 km/h 54% 0.0 mm
03:49 17.7 °C 7.8 °C 1019.1 hPa Calm   5 km/h 52.5% 0.0 mm
03:54 17.6 °C 7.6 °C 1019.1 hPa Calm   5.6 km/h 51.9% 0.0 mm
03:59 17.6 °C 7.6 °C 1019.1 hPa ESE 1.2 km/h 5.8 km/h 52% 0.0 mm
04:04 17.6 °C 7.6 °C 1019.1 hPa SE 3.2 km/h 6.4 km/h 52% 0.0 mm
04:09 17.4 °C 7.5 °C 1019.0 hPa SSE 3.5 km/h 8.7 km/h 52% 0.0 mm
04:14 17.4 °C 7.2 °C 1019.0 hPa Sur 3.9 km/h 9.7 km/h 51.2% 0.0 mm
04:19 17.3 °C 7.1 °C 1019.0 hPa SSO 4.5 km/h 9.7 km/h 51% 0.0 mm
04:24 17.3 °C 7.1 °C 1018.8 hPa SSO 5.8 km/h 9.7 km/h 51% 0.0 mm
04:29 17.3 °C 6.9 °C 1018.8 hPa SSO 5.8 km/h 8.4 km/h 50.6% 0.0 mm
04:34 17.4 °C 6.9 °C 1018.8 hPa SO 5.8 km/h 10.3 km/h 50% 0.0 mm
04:39 17.4 °C 6.6 °C 1018.8 hPa SSO 6 km/h 11.9 km/h 49.2% 0.0 mm
04:44 17.4 °C 6.6 °C 1018.8 hPa SO 6.5 km/h 11.3 km/h 49% 0.0 mm
04:49 17.3 °C 6.5 °C 1018.8 hPa SO 6.2 km/h 9.7 km/h 49% 0.0 mm
04:54 17.3 °C 6.5 °C 1018.6 hPa SO 5.8 km/h 11.1 km/h 49% 0.0 mm
04:59 17.2 °C 6.4 °C 1018.6 hPa SO 5.8 km/h 11.3 km/h 49% 0.0 mm
05:04 17.2 °C 6.6 °C 1018.6 hPa SO 5.8 km/h 9.7 km/h 49.9% 0.0 mm
05:09 17.1 °C 6.6 °C 1018.6 hPa SO 5.8 km/h 11.1 km/h 50% 0.0 mm
05:14 17.1 °C 6.6 °C 1018.6 hPa SO 5.8 km/h 11.3 km/h 50% 0.0 mm
05:19 17.1 °C 6.6 °C 1018.6 hPa SO 6.2 km/h 13 km/h 50% 0.0 mm
05:24 17.1 °C 6.6 °C 1018.6 hPa SO 6.9 km/h 12.9 km/h 50.1% 0.0 mm
05:29 17.1 °C 6.9 °C 1018.6 hPa SO 6.2 km/h 9.7 km/h 51% 0.0 mm
05:34 17.1 °C 6.9 °C 1018.6 hPa SO 5 km/h 8.4 km/h 51% 0.0 mm
05:39 17.1 °C 6.9 °C 1018.6 hPa SO 4.9 km/h 8 km/h 51% 0.0 mm
05:44 17 °C 6.8 °C 1018.6 hPa SSO 4.7 km/h 8 km/h 51% 0.0 mm
05:49 16.9 °C 7 °C 1018.6 hPa Sur 4.7 km/h 8 km/h 52% 0.0 mm
05:54 16.8 °C 6.9 °C 1018.6 hPa SSE 4.7 km/h 8.4 km/h 52% 0.0 mm
05:59 16.7 °C 6.7 °C 1018.6 hPa SSO 5.1 km/h 9.5 km/h 52% 0.0 mm
06:04 16.6 °C 6.7 °C 1018.6 hPa SSO 5.8 km/h 9.7 km/h 52% 0.0 mm
06:09 16.6 °C 6.7 °C 1018.6 hPa SSO 5.5 km/h 9.7 km/h 51.9% 0.0 mm
06:14 16.6 °C 6.4 °C 1018.6 hPa SO 5 km/h 9.5 km/h 51.1% 0.0 mm
06:19 16.7 °C 6.3 °C 1018.6 hPa SO 5.3 km/h 9.7 km/h 50.3% 0.0 mm
06:24 16.7 °C 6.2 °C 1018.5 hPa SSO 5.8 km/h 9.7 km/h 50% 0.0 mm
06:29 16.7 °C 6.2 °C 1018.5 hPa SSO 5.8 km/h 10 km/h 50% 0.0 mm
06:34 16.7 °C 6.1 °C 1018.6 hPa SSO 5.8 km/h 9.7 km/h 49.5% 0.0 mm
06:39 16.7 °C 6 °C 1018.6 hPa SSO 5.5 km/h 9.7 km/h 49.1% 0.0 mm
06:44 16.7 °C 6.1 °C 1018.6 hPa SSO 5 km/h 10 km/h 49.6% 0.0 mm
06:49 16.6 °C 6.2 °C 1018.6 hPa Sur 4.6 km/h 9.7 km/h 50.4% 0.0 mm
06:54 16.5 °C 6.7 °C 1018.6 hPa Sur 3.9 km/h 8 km/h 52.5% 0.0 mm
06:59 16.3 °C 6.7 °C 1018.6 hPa SSE 4.2 km/h 8 km/h 53.1% 0.0 mm
07:04 16.1 °C 6.7 °C 1018.7 hPa Sur 4.7 km/h 8.4 km/h 54% 0.0 mm
07:09 15.9 °C 6.7 °C 1018.7 hPa Sur 4.7 km/h 8 km/h 54.3% 0.0 mm
07:14 15.9 °C 6.9 °C 1018.7 hPa Sur 4.7 km/h 8 km/h 55% 0.0 mm
07:19 15.9 °C 6.6 °C 1018.8 hPa SSO 4.4 km/h 7.4 km/h 54% 0.0 mm
07:24 16 °C 6.5 °C 1018.8 hPa SO 3.9 km/h 8 km/h 53.3% 0.0 mm
07:29 16.2 °C 6.2 °C 1018.8 hPa SO 4.1 km/h 9.3 km/h 51.4% 0.0 mm
07:34 16.4 °C 6 °C 1018.9 hPa SO 4.7 km/h 11.1 km/h 50.2% 0.0 mm
07:39 16.6 °C 6 °C 1018.9 hPa SO 5.1 km/h 11.3 km/h 49.4% 0.0 mm
07:44 16.7 °C 6 °C 1018.9 hPa SSO 5.8 km/h 9.7 km/h 49% 0.0 mm
07:49 16.8 °C 6.1 °C 1018.9 hPa Sur 5.8 km/h 9.7 km/h 49.1% 0.0 mm
07:54 17 °C 6.7 °C 1018.9 hPa SSO 5.8 km/h 8 km/h 50.6% 0.0 mm
07:59 17.2 °C 6.3 °C 1018.9 hPa OSO 5.4 km/h 11.1 km/h 48.8% 0.0 mm
08:04 17.2 °C 5.9 °C 1018.9 hPa OSO 4.6 km/h 11.3 km/h 47.5% 0.0 mm
08:09 17.3 °C 5.9 °C 1018.7 hPa SO 5.6 km/h 11.3 km/h 47% 0.0 mm
08:14 17.4 °C 6.1 °C 1018.7 hPa SO 7.6 km/h 11.3 km/h 47.7% 0.0 mm
08:19 17.5 °C 6.9 °C 1018.8 hPa SSE 6.9 km/h 8.4 km/h 50% 0.0 mm
08:24 17.5 °C 7.2 °C 1018.8 hPa Sur 5.8 km/h 8 km/h 51% 0.0 mm
08:29 17.6 °C 6.8 °C 1018.8 hPa SO 5.4 km/h 10 km/h 49.2% 0.0 mm
08:34 17.7 °C 6.3 °C 1018.9 hPa OSO 4.7 km/h 11.1 km/h 47.2% 0.0 mm
08:39 17.8 °C 6.3 °C 1018.9 hPa OSO 5.5 km/h 11.9 km/h 46.7% 0.0 mm
08:44 17.9 °C 6.2 °C 1018.9 hPa OSO 6.9 km/h 11.9 km/h 46.4% 0.0 mm
08:49 17.9 °C 6.4 °C 1019.0 hPa OSO 7.2 km/h 11.3 km/h 47% 0.0 mm
08:54 18.1 °C 6.6 °C 1019.0 hPa SSO 7.6 km/h 10 km/h 47% 0.0 mm
08:59 18.2 °C 6.6 °C 1019.0 hPa SSO 7.1 km/h 11.9 km/h 46.5% 0.0 mm
09:04 18.2 °C 6.4 °C 1019.0 hPa SSO 6.5 km/h 11.3 km/h 46% 0.0 mm
09:09 18.4 °C 6.6 °C 1019.0 hPa SSO 6.5 km/h 11.3 km/h 46.2% 0.0 mm
09:14 18.6 °C 6.8 °C 1019.0 hPa Sur 6.5 km/h 11.1 km/h 46% 0.0 mm
09:19 18.8 °C 6.7 °C 1019.0 hPa SSO 6.5 km/h 11.3 km/h 45.2% 0.0 mm
09:24 19 °C 6.7 °C 1019.0 hPa Sur 6.5 km/h 11.1 km/h 44.8% 0.0 mm
09:29 19.2 °C 6.4 °C 1019.0 hPa Sur 6.9 km/h 13 km/h 43.5% 0.0 mm
09:34 19.3 °C 6.2 °C 1019.1 hPa SSO 7.6 km/h 13 km/h 42.5% 0.0 mm
09:39 19.4 °C 6.2 °C 1019.1 hPa SSO 7.9 km/h 13.7 km/h 42% 0.0 mm
09:44 19.4 °C 6.3 °C 1019.1 hPa SSO 8.4 km/h 14.5 km/h 42.2% 0.0 mm
09:49 19.7 °C 6.4 °C 1019.1 hPa SSO 8.4 km/h 12.9 km/h 41.9% 0.0 mm
09:54 19.8 °C 6.3 °C 1019.1 hPa SSO 8.4 km/h 11.3 km/h 41.6% 0.0 mm
09:59 20 °C 6 °C 1019.1 hPa SSO 8.1 km/h 12.2 km/h 40.2% 0.0 mm
10:04 20.2 °C 6.2 °C 1019.1 hPa Sur 7.6 km/h 13 km/h 40% 0.0 mm
10:09 20.4 °C 6.3 °C 1019.0 hPa Sur 7.3 km/h 11.3 km/h 39.8% 0.0 mm
10:14 20.7 °C 6.1 °C 1019.0 hPa SO 6.9 km/h 11.3 km/h 38.7% 0.0 mm
10:19 20.8 °C 6.1 °C 1019.0 hPa OSO 6.5 km/h 11.3 km/h 38.2% 0.0 mm
10:24 21.1 °C 6.2 °C 1018.9 hPa OSO 5.8 km/h 10 km/h 38% 0.0 mm
10:29 21.4 °C 6.4 °C 1018.9 hPa Oeste 5.5 km/h 9.7 km/h 37.8% 0.0 mm
10:34 21.7 °C 6.3 °C 1018.9 hPa Oeste 5 km/h 10 km/h 37% 0.0 mm
10:39 21.8 °C 6.3 °C 1018.9 hPa OSO 4.9 km/h 9.7 km/h 36.6% 0.0 mm
10:42 22.1 °C 6.3 °C 1018.9 hPa SO 4.6 km/h 9.7 km/h 36% 0.0 mm
12:29 25.6 °C 4 °C 1018.5 hPa North 9.1 km/h 19.8 km/h 24.8% 0.0 mm
12:34 25.9 °C 4 °C 1018.5 hPa NNE 8.7 km/h 19.8 km/h 24.5% 0.0 mm
12:39 26 °C 3.8 °C 1018.4 hPa ENE 9.3 km/h 20.9 km/h 24% 0.0 mm
12:44 25.8 °C 3.7 °C 1018.4 hPa NE 10.3 km/h 19.3 km/h 24% 0.0 mm
12:49 25.9 °C 4 °C 1018.4 hPa NE 9.8 km/h 19.3 km/h 24.4% 0.0 mm
12:54 26.2 °C 4 °C 1018.3 hPa NNO 8.7 km/h 14.8 km/h 24% 0.0 mm
12:59 26.5 °C 4.2 °C 1018.3 hPa NNE 7.8 km/h 19 km/h 23.8% 0.0 mm
13:04 26.6 °C 4 °C 1018.3 hPa NE 6.5 km/h 19.3 km/h 23.3% 0.0 mm
13:09 26.7 °C 4.2 °C 1018.2 hPa ENE 7.1 km/h 19.3 km/h 23.6% 0.0 mm
13:14 26.8 °C 4.4 °C 1018.2 hPa NE 8.4 km/h 17.2 km/h 23.6% 0.0 mm
13:19 26.8 °C 4.1 °C 1018.2 hPa NE 8.5 km/h 17.7 km/h 23.2% 0.0 mm
13:24 26.9 °C 4.2 °C 1018.0 hPa NNE 8.7 km/h 20.4 km/h 23.3% 0.0 mm
13:29 27 °C 4.2 °C 1018.0 hPa NE 9.2 km/h 20.9 km/h 23.2% 0.0 mm
13:34 27.1 °C 4.2 °C 1018.0 hPa NNE 10 km/h 19.8 km/h 23% 0.0 mm
13:39 27.1 °C 4.1 °C 1017.8 hPa NNE 10.8 km/h 22.2 km/h 22.8% 0.0 mm
13:44 27.1 °C 4.2 °C 1017.8 hPa NE 12.2 km/h 22.5 km/h 23% 0.0 mm
13:49 27.3 °C 4.3 °C 1017.8 hPa NNE 11 km/h 18.5 km/h 23% 0.0 mm
13:54 27.4 °C 4.4 °C 1017.6 hPa NNE 8.7 km/h 19.3 km/h 22.9% 0.0 mm
13:59 27.5 °C 4.3 °C 1017.6 hPa North 8.7 km/h 20.4 km/h 22.7% 0.0 mm
14:04 27.7 °C 4.2 °C 1017.6 hPa North 8.7 km/h 20.9 km/h 22.3% 0.0 mm
14:09 27.8 °C 4.3 °C 1017.3 hPa NE 9.1 km/h 22.2 km/h 22.3% 0.0 mm
14:14 27.9 °C 4.4 °C 1017.3 hPa NE 10 km/h 22.5 km/h 22.3% 0.0 mm
14:19 28.1 °C 4.7 °C 1017.3 hPa NE 10 km/h 18.3 km/h 22.5% 0.0 mm
14:24 28.2 °C 4.5 °C 1017.2 hPa NE 10 km/h 22.2 km/h 22% 0.0 mm
14:29 28.2 °C 4.4 °C 1017.2 hPa NNE 10.4 km/h 22.5 km/h 22% 0.0 mm
14:34 28.2 °C 4.7 °C 1017.2 hPa NE 11.1 km/h 16.7 km/h 22.3% 0.0 mm
14:39 28.4 °C 4.6 °C 1016.9 hPa ENE 10.2 km/h 17.2 km/h 22.1% 0.0 mm
14:44 28.6 °C 4.8 °C 1016.9 hPa NE 8.4 km/h 22.2 km/h 22.1% 0.0 mm
14:49 28.4 °C 4.2 °C 1016.9 hPa ENE 8.9 km/h 22.5 km/h 21.4% 0.0 mm
14:54 28.4 °C 4.2 °C 1016.8 hPa NE 10 km/h 22.5 km/h 21.5% 0.0 mm
14:59 28.6 °C 4.1 °C 1016.8 hPa ENE 10 km/h 20.9 km/h 21.1% 0.0 mm
15:04 28.5 °C 4.1 °C 1016.8 hPa ENE 10 km/h 22.5 km/h 21.1% 0.0 mm
15:09 28.4 °C 4.2 °C 1016.7 hPa NE 10.7 km/h 24.5 km/h 21.3% 0.0 mm
15:14 28.4 °C 4.4 °C 1016.7 hPa ENE 12.2 km/h 24.1 km/h 21.7% 0.0 mm
15:19 28.5 °C 4.5 °C 1016.7 hPa ENE 12.9 km/h 25.9 km/h 21.7% 0.0 mm
15:24 28.4 °C 4.6 °C 1016.6 hPa ENE 14 km/h 26.2 km/h 22% 0.0 mm
15:29 28.5 °C 4.5 °C 1016.6 hPa NE 13.9 km/h 26.2 km/h 21.8% 0.0 mm
15:34 28.4 °C 4.3 °C 1016.6 hPa NE 13.7 km/h 25.7 km/h 21.5% 0.0 mm
15:39 28.6 °C 4.5 °C 1016.5 hPa NE 13.7 km/h 24.1 km/h 21.6% 0.0 mm
15:44 28.5 °C 4.1 °C 1016.5 hPa NE 13.7 km/h 26.2 km/h 21% 0.0 mm
15:49 28.3 °C 4 °C 1016.5 hPa ENE 13.7 km/h 25.7 km/h 21.1% 0.0 mm
15:54 28.5 °C 4.1 °C 1016.4 hPa NE 13.7 km/h 22.5 km/h 21.1% 0.0 mm
15:59 28.5 °C 4.1 °C 1016.4 hPa NE 13.4 km/h 22.5 km/h 21% 0.0 mm
16:04 28.5 °C 4.1 °C 1016.4 hPa NE 13 km/h 20.9 km/h 21% 0.0 mm
16:09 28.6 °C 4.1 °C 1016.4 hPa ENE 12.1 km/h 20.9 km/h 21% 0.0 mm
16:14 28.7 °C 4.3 °C 1016.4 hPa NE 10.3 km/h 20.9 km/h 21.2% 0.0 mm
16:19 28.7 °C 4.4 °C 1016.4 hPa NE 10.5 km/h 26.2 km/h 21.2% 0.0 mm
16:24 28.6 °C 4.3 °C 1016.4 hPa ENE 11.1 km/h 25.9 km/h 21.3% 0.0 mm
16:29 28.7 °C 4.6 °C 1016.4 hPa ENE 10.8 km/h 25.7 km/h 21.5% 0.0 mm
16:34 28.8 °C 4.7 °C 1016.4 hPa NE 10.3 km/h 22.2 km/h 21.6% 0.0 mm
16:39 28.8 °C 4.8 °C 1016.2 hPa ENE 10.6 km/h 22.5 km/h 21.8% 0.0 mm
16:44 28.9 °C 5 °C 1016.2 hPa ENE 11.1 km/h 22.5 km/h 22% 0.0 mm
16:49 28.9 °C 5 °C 1016.2 hPa Este 11.1 km/h 22.5 km/h 22% 0.0 mm
16:54 28.9 °C 5.1 °C 1016.1 hPa ENE 11.1 km/h 22.5 km/h 22% 0.0 mm
16:59 28.8 °C 5.2 °C 1016.1 hPa NE 11.5 km/h 29.6 km/h 22.3% 0.0 mm
17:04 28.4 °C 5 °C 1016.1 hPa NE 12.2 km/h 29 km/h 22.5% 0.0 mm
17:09 28.4 °C 5.2 °C 1016.0 hPa NE 13.4 km/h 26.2 km/h 22.9% 0.0 mm
17:14 28.3 °C 5 °C 1016.0 hPa NE 15.6 km/h 25.9 km/h 22.7% 0.0 mm
17:19 28.3 °C 5.1 °C 1016.0 hPa NE 15.6 km/h 25.7 km/h 23% 0.0 mm
17:24 28.4 °C 4.8 °C 1015.9 hPa NE 15.6 km/h 20.9 km/h 22.2% 0.0 mm
17:29 28.5 °C 5.1 °C 1015.9 hPa NE 14.4 km/h 22.2 km/h 22.7% 0.0 mm
17:34 28.4 °C 5.4 °C 1015.9 hPa NE 12.2 km/h 22.5 km/h 23.1% 0.0 mm
17:39 28.5 °C 5.3 °C 1015.9 hPa NE 12.5 km/h 26.2 km/h 23% 0.0 mm
17:44 28.3 °C 5.4 °C 1015.9 hPa NE 13 km/h 25.9 km/h 23.3% 0.0 mm
17:49 28.3 °C 5.6 °C 1016.0 hPa NE 13.9 km/h 25.9 km/h 23.6% 0.0 mm
17:54 28.3 °C 5.5 °C 1016.0 hPa NE 15.6 km/h 25.7 km/h 23.5% 0.0 mm
17:59 28.3 °C 5.7 °C 1016.0 hPa ENE 14.6 km/h 22.5 km/h 23.9% 0.0 mm
18:04 28.3 °C 5.8 °C 1016.0 hPa ENE 13 km/h 27.8 km/h 24% 0.0 mm
18:09 28.3 °C 5.8 °C 1016.0 hPa NE 12.7 km/h 27.4 km/h 24% 0.0 mm
18:14 28.2 °C 5.7 °C 1016.0 hPa NE 12.2 km/h 24.5 km/h 24% 0.0 mm
18:19 28.1 °C 5.6 °C 1016.0 hPa NE 12.5 km/h 24.1 km/h 24% 0.0 mm
18:24 28.1 °C 5.6 °C 1015.9 hPa NE 13 km/h 24.5 km/h 24% 0.0 mm
18:29 27.9 °C 5.5 °C 1015.9 hPa NE 13.3 km/h 24.1 km/h 24% 0.0 mm
18:34 27.9 °C 5.5 °C 1015.9 hPa ENE 13.7 km/h 24.1 km/h 24.1% 0.0 mm
18:39 27.9 °C 5.9 °C 1015.9 hPa NE 13.1 km/h 23.7 km/h 24.8% 0.0 mm
18:44 27.8 °C 5.9 °C 1015.9 hPa NE 11.9 km/h 24.1 km/h 25% 0.0 mm
18:49 27.7 °C 5.9 °C 1015.9 hPa NE 13 km/h 27.8 km/h 25% 0.0 mm
18:54 27.5 °C 6.1 °C 1015.8 hPa NE 14.8 km/h 27.4 km/h 25.7% 0.0 mm
18:59 27.6 °C 6.4 °C 1015.8 hPa NE 14.4 km/h 22.5 km/h 26.1% 0.0 mm
19:04 27.6 °C 6.9 °C 1015.8 hPa NE 13.7 km/h 27.8 km/h 26.9% 0.0 mm
19:09 27.4 °C 6.7 °C 1015.7 hPa NE 13.1 km/h 27.4 km/h 26.9% 0.0 mm
19:14 27.4 °C 6.7 °C 1015.7 hPa NE 11.9 km/h 22.5 km/h 27.1% 0.0 mm
19:19 27.3 °C 7.2 °C 1015.7 hPa NE 12.3 km/h 25.9 km/h 28% 0.0 mm
19:24 27.2 °C 7.1 °C 1015.7 hPa NE 13 km/h 25.7 km/h 28% 0.0 mm
19:29 27.1 °C 7.2 °C 1015.7 hPa NE 13.4 km/h 24.1 km/h 28.4% 0.0 mm
19:34 26.8 °C 7.5 °C 1015.8 hPa NE 14 km/h 25.9 km/h 29.4% 0.0 mm
19:39 26.7 °C 7.7 °C 1015.8 hPa ENE 13.9 km/h 25.7 km/h 30% 0.0 mm
19:44 26.6 °C 7.6 °C 1015.8 hPa NE 13.7 km/h 20.9 km/h 30% 0.0 mm
19:49 26.5 °C 7.5 °C 1015.9 hPa NE 13.4 km/h 22.5 km/h 30% 0.0 mm
19:54 26.3 °C 7.1 °C 1015.9 hPa NE 13 km/h 24.1 km/h 29.5% 0.0 mm
19:59 26.2 °C 7.2 °C 1015.9 hPa NE 14 km/h 25.9 km/h 29.9% 0.0 mm
20:04 26 °C 6.7 °C 1016.0 hPa NE 15.6 km/h 25.7 km/h 29.2% 0.0 mm
20:09 26 °C 6.3 °C 1016.0 hPa NE 14.6 km/h 24.1 km/h 28.6% 0.0 mm
20:14 25.8 °C 6.1 °C 1016.0 hPa NE 13 km/h 24.1 km/h 28.3% 0.0 mm
20:19 25.7 °C 5.8 °C 1016.0 hPa NE 14 km/h 24.1 km/h 28% 0.0 mm
20:24 25.6 °C 6.2 °C 1016.0 hPa NE 15.6 km/h 24.1 km/h 29% 0.0 mm
20:29 25.6 °C 6.2 °C 1016.0 hPa NE 14.7 km/h 22.5 km/h 29% 0.0 mm
20:34 25.4 °C 5.9 °C 1016.0 hPa NE 13 km/h 22.5 km/h 28.7% 0.0 mm
20:39 25.3 °C 6 °C 1016.0 hPa NE 13.4 km/h 25.9 km/h 29.1% 0.0 mm
20:44 25.2 °C 6.2 °C 1016.0 hPa NE 14 km/h 25.7 km/h 29.6% 0.0 mm
20:49 25.1 °C 6.3 °C 1016.2 hPa NE 13.7 km/h 24.1 km/h 30% 0.0 mm
20:54 24.9 °C 6.1 °C 1016.2 hPa NE 13 km/h 22.5 km/h 30% 0.0 mm
20:59 24.8 °C 6.4 °C 1016.2 hPa NE 12.8 km/h 20.9 km/h 30.7% 0.0 mm
21:04 24.7 °C 6.9 °C 1016.3 hPa NE 12.2 km/h 19.3 km/h 32.1% 0.0 mm
21:09 24.4 °C 7.3 °C 1016.3 hPa NE 11.5 km/h 18.5 km/h 33.5% 0.0 mm
21:14 24.1 °C 7.5 °C 1016.3 hPa NE 10.3 km/h 19.3 km/h 34.4% 0.0 mm
21:19 23.9 °C 7.5 °C 1016.3 hPa NE 10.6 km/h 18.5 km/h 35.1% 0.0 mm
21:24 23.7 °C 7.7 °C 1016.3 hPa NE 11.1 km/h 19.3 km/h 36% 0.0 mm
21:29 23.6 °C 7.9 °C 1016.3 hPa NE 11.1 km/h 20.9 km/h 36.6% 0.0 mm
21:34 23.3 °C 8 °C 1016.5 hPa NE 11.1 km/h 20.9 km/h 37.4% 0.0 mm
21:39 23.2 °C 8.2 °C 1016.5 hPa NE 10.2 km/h 16.1 km/h 38.2% 0.0 mm
21:44 23.1 °C 8.4 °C 1016.5 hPa NE 8.7 km/h 16.7 km/h 39.1% 0.0 mm
21:49 22.8 °C 8.7 °C 1016.6 hPa NE 9.3 km/h 16.7 km/h 40.4% 0.0 mm
21:54 22.7 °C 9.1 °C 1016.6 hPa NE 10.3 km/h 18.5 km/h 42.1% 0.0 mm
21:59 22.5 °C 9.9 °C 1016.6 hPa NE 10.3 km/h 19.3 km/h 44.7% 0.0 mm
22:04 22.3 °C 10.6 °C 1016.7 hPa NE 10.3 km/h 16.1 km/h 47.5% 0.0 mm
22:09 22.1 °C 11.1 °C 1016.7 hPa NE 10 km/h 16.1 km/h 49.8% 0.0 mm
22:14 21.9 °C 11.4 °C 1016.7 hPa NE 9.5 km/h 15.6 km/h 51.4% 0.0 mm
22:19 21.7 °C 11.5 °C 1016.8 hPa NE 9.7 km/h 17.2 km/h 52% 0.0 mm
22:24 21.6 °C 11.6 °C 1016.8 hPa NE 10 km/h 20.4 km/h 53% 0.0 mm
22:29 21.4 °C 11.5 °C 1016.8 hPa NE 10.4 km/h 20.9 km/h 53% 0.0 mm
22:34 21.3 °C 11.6 °C 1017.0 hPa NNE 11.1 km/h 16.1 km/h 53.9% 0.0 mm
22:39 21.2 °C 11.5 °C 1017.0 hPa NE 10.3 km/h 18.5 km/h 53.9% 0.0 mm
22:44 21.1 °C 11.5 °C 1017.0 hPa NE 8.7 km/h 19.3 km/h 54% 0.0 mm
22:49 21 °C 11.4 °C 1017.3 hPa NE 9 km/h 19.3 km/h 53.9% 0.0 mm
22:54 20.9 °C 11.3 °C 1017.3 hPa NE 9.5 km/h 11.9 km/h 54% 0.0 mm
22:59 20.9 °C 11.2 °C 1017.3 hPa NE 8.5 km/h 13 km/h 54% 0.0 mm
23:04 20.8 °C 11.2 °C 1017.6 hPa NE 6.9 km/h 14.8 km/h 54.1% 0.0 mm
23:09 20.7 °C 11.4 °C 1017.6 hPa NE 7.6 km/h 15.6 km/h 55.2% 0.0 mm
23:14 20.6 °C 11.6 °C 1017.6 hPa NE 8.7 km/h 16.1 km/h 56.2% 0.0 mm
23:19 20.5 °C 11.7 °C 1017.6 hPa NE 8.7 km/h 14.5 km/h 57% 0.0 mm
23:24 20.4 °C 11.6 °C 1017.5 hPa NE 8.7 km/h 14.8 km/h 57% 0.0 mm
23:29 20.3 °C 11.5 °C 1017.5 hPa NE 9 km/h 14.5 km/h 57% 0.0 mm
23:34 20.3 °C 11.5 °C 1017.6 hPa NE 9.5 km/h 14.8 km/h 57.3% 0.0 mm
23:39 20.2 °C 11.7 °C 1017.6 hPa NE 9.5 km/h 14.8 km/h 58% 0.0 mm
23:44 20.1 °C 11.7 °C 1017.6 hPa NE 9.5 km/h 14.5 km/h 58.7% 0.0 mm
23:49 19.9 °C 11.7 °C 1017.7 hPa NE 9.2 km/h 13 km/h 59.2% 0.0 mm
23:54 19.8 °C 11.9 °C 1017.7 hPa NE 8.7 km/h 13.7 km/h 60% 0.0 mm
23:59 19.8 °C 12 °C 1017.7 hPa NE 8.7 km/h 14.5 km/h 60.9% 0.0 mm
Murcia-Puente Tocinos, España
Compliments of Weather Underground - 2.75 mb

La estación de MeteoMurcia.com, publica sus datos en los siguientes proyectos:

Weather Underground PWS IMURCIAP2 Meteoclimatic www.awekas.at

W3Counter
Web Analytics